sensor_id;sensor_type;location;lat;lon;timestamp;pressure;altitude;pressure_sealevel;temperature;humidity
61643;BME280;47551;52.506;4.678;2023-07-30T00:00:02;100726.06;;;20.38;100.00
61643;BME280;47551;52.506;4.678;2023-07-30T00:00:23;100726.50;;;20.44;100.00
61643;BME280;47551;52.506;4.678;2023-07-30T00:00:43;100734.03;;;20.50;100.00
61643;BME280;47551;52.506;4.678;2023-07-30T00:01:03;100731.16;;;20.42;100.00
61643;BME280;47551;52.506;4.678;2023-07-30T00:01:24;100727.50;;;20.43;100.00
61643;BME280;47551;52.506;4.678;2023-07-30T00:01:44;100734.53;;;20.44;100.00
61643;BME280;47551;52.506;4.678;2023-07-30T00:02:04;100721.69;;;20.37;100.00
61643;BME280;47551;52.506;4.678;2023-07-30T00:02:28;100734.78;;;20.52;100.00
61643;BME280;47551;52.506;4.678;2023-07-30T00:02:48;100726.25;;;20.58;100.00
61643;BME280;47551;52.506;4.678;2023-07-30T00:03:08;100727.97;;;20.48;100.00
61643;BME280;47551;52.506;4.678;2023-07-30T00:03:29;100730.91;;;20.45;100.00
61643;BME280;47551;52.506;4.678;2023-07-30T00:03:49;100728.75;;;20.38;100.00
61643;BME280;47551;52.506;4.678;2023-07-30T00:04:12;100730.00;;;20.34;100.00
61643;BME280;47551;52.506;4.678;2023-07-30T00:04:32;100730.69;;;20.36;100.00
61643;BME280;47551;52.506;4.678;2023-07-30T00:04:53;100733.69;;;20.43;100.00
61643;BME280;47551;52.506;4.678;2023-07-30T00:05:13;100725.09;;;20.39;100.00
61643;BME280;47551;52.506;4.678;2023-07-30T00:05:36;100725.66;;;20.43;100.00
61643;BME280;47551;52.506;4.678;2023-07-30T00:05:57;100729.91;;;20.46;100.00
61643;BME280;47551;52.506;4.678;2023-07-30T00:06:17;100730.88;;;20.56;100.00
61643;BME280;47551;52.506;4.678;2023-07-30T00:06:37;100732.81;;;20.54;100.00
61643;BME280;47551;52.506;4.678;2023-07-30T00:06:58;100729.19;;;20.44;100.00
61643;BME280;47551;52.506;4.678;2023-07-30T00:07:21;100729.59;;;20.39;100.00
61643;BME280;47551;52.506;4.678;2023-07-30T00:07:41;100734.34;;;20.35;100.00
61643;BME280;47551;52.506;4.678;2023-07-30T00:08:02;100722.81;;;20.35;100.00
61643;BME280;47551;52.506;4.678;2023-07-30T00:08:25;100728.50;;;20.42;100.00
61643;BME280;47551;52.506;4.678;2023-07-30T00:08:48;100731.34;;;20.50;100.00
61643;BME280;47551;52.506;4.678;2023-07-30T00:09:11;100733.44;;;20.46;100.00
61643;BME280;47551;52.506;4.678;2023-07-30T00:09:31;100724.31;;;20.49;100.00
61643;BME280;47551;52.506;4.678;2023-07-30T00:09:52;100728.44;;;20.53;100.00
61643;BME280;47551;52.506;4.678;2023-07-30T00:10:12;100732.56;;;20.57;100.00
61643;BME280;47551;52.506;4.678;2023-07-30T00:10:35;100730.59;;;20.59;100.00
61643;BME280;47551;52.506;4.678;2023-07-30T00:10:59;100732.81;;;20.54;100.00
61643;BME280;47551;52.506;4.678;2023-07-30T00:11:22;100731.31;;;20.61;100.00
61643;BME280;47551;52.506;4.678;2023-07-30T00:11:42;100735.56;;;20.63;100.00
61643;BME280;47551;52.506;4.678;2023-07-30T00:12:04;100742.06;;;20.50;100.00
61643;BME280;47551;52.506;4.678;2023-07-30T00:12:24;100735.00;;;20.49;100.00
61643;BME280;47551;52.506;4.678;2023-07-30T00:12:45;100729.31;;;20.42;100.00
61643;BME280;47551;52.506;4.678;2023-07-30T00:13:05;100737.78;;;20.26;100.00
61643;BME280;47551;52.506;4.678;2023-07-30T00:13:25;100736.25;;;20.24;100.00
61643;BME280;47551;52.506;4.678;2023-07-30T00:13:46;100736.59;;;20.30;100.00
61643;BME280;47551;52.506;4.678;2023-07-30T00:14:06;100738.78;;;20.25;100.00
61643;BME280;47551;52.506;4.678;2023-07-30T00:14:26;100735.38;;;20.23;100.00
61643;BME280;47551;52.506;4.678;2023-07-30T00:14:49;100734.88;;;20.29;100.00
61643;BME280;47551;52.506;4.678;2023-07-30T00:15:12;100731.50;;;20.27;100.00
61643;BME280;47551;52.506;4.678;2023-07-30T00:15:33;100737.09;;;20.24;100.00
61643;BME280;47551;52.506;4.678;2023-07-30T00:15:53;100735.78;;;20.39;100.00
61643;BME280;47551;52.506;4.678;2023-07-30T00:16:14;100729.84;;;20.36;100.00
61643;BME280;47551;52.506;4.678;2023-07-30T00:16:37;100741.38;;;20.36;100.00
61643;BME280;47551;52.506;4.678;2023-07-30T00:16:57;100734.03;;;20.29;100.00
61643;BME280;47551;52.506;4.678;2023-07-30T00:17:18;100732.91;;;20.31;100.00
61643;BME280;47551;52.506;4.678;2023-07-30T00:17:39;100740.34;;;20.28;100.00
61643;BME280;47551;52.506;4.678;2023-07-30T00:17:59;100740.47;;;20.26;100.00
61643;BME280;47551;52.506;4.678;2023-07-30T00:18:19;100748.84;;;20.33;100.00
61643;BME280;47551;52.506;4.678;2023-07-30T00:18:42;100735.38;;;20.23;100.00
61643;BME280;47551;52.506;4.678;2023-07-30T00:19:02;100739.63;;;20.26;100.00
61643;BME280;47551;52.506;4.678;2023-07-30T00:19:23;100732.19;;;20.29;100.00
61643;BME280;47551;52.506;4.678;2023-07-30T00:19:43;100738.78;;;20.25;100.00
61643;BME280;47551;52.506;4.678;2023-07-30T00:20:07;100744.63;;;20.19;100.00
61643;BME280;47551;52.506;4.678;2023-07-30T00:20:28;100740.03;;;20.21;100.00
61643;BME280;47551;52.506;4.678;2023-07-30T00:20:51;100739.28;;;20.19;100.00
61643;BME280;47551;52.506;4.678;2023-07-30T00:21:11;100742.19;;;20.27;100.00
61643;BME280;47551;52.506;4.678;2023-07-30T00:21:32;100740.34;;;20.28;100.00
61643;BME280;47551;52.506;4.678;2023-07-30T00:21:52;100741.72;;;20.22;100.00
61643;BME280;47551;52.506;4.678;2023-07-30T00:22:12;100742.19;;;20.27;100.00
61643;BME280;47551;52.506;4.678;2023-07-30T00:22:33;100742.19;;;20.27;100.00
61643;BME280;47551;52.506;4.678;2023-07-30T00:22:53;100735.84;;;20.28;100.00
61643;BME280;47551;52.506;4.678;2023-07-30T00:23:13;100739.28;;;20.19;100.00
61643;BME280;47551;52.506;4.678;2023-07-30T00:23:34;100741.25;;;20.17;100.00
61643;BME280;47551;52.506;4.678;2023-07-30T00:23:57;100746.88;;;20.14;100.00
61643;BME280;47551;52.506;4.678;2023-07-30T00:24:21;100735.31;;;20.13;100.00
61643;BME280;47551;52.506;4.678;2023-07-30T00:24:41;100743.41;;;20.23;100.00
61643;BME280;47551;52.506;4.678;2023-07-30T00:25:01;100750.25;;;20.16;100.00
61643;BME280;47551;52.506;4.678;2023-07-30T00:25:22;100743.94;;;20.17;100.00
61643;BME280;47551;52.506;4.678;2023-07-30T00:25:42;100735.91;;;20.17;100.00
61643;BME280;47551;52.506;4.678;2023-07-30T00:26:05;100744.53;;;20.21;100.00
61643;BME280;47551;52.506;4.678;2023-07-30T00:26:26;100743.53;;;20.22;100.00
61643;BME280;47551;52.506;4.678;2023-07-30T00:26:46;100740.47;;;20.26;100.00
61643;BME280;47551;52.506;4.678;2023-07-30T00:27:06;100740.22;;;20.29;100.00
61643;BME280;47551;52.506;4.678;2023-07-30T00:27:27;100742.19;;;20.27;100.00
61643;BME280;47551;52.506;4.678;2023-07-30T00:27:47;100740.94;;;20.31;100.00
61643;BME280;47551;52.506;4.678;2023-07-30T00:28:07;100742.19;;;20.27;100.00
61643;BME280;47551;52.506;4.678;2023-07-30T00:28:28;100743.38;;;20.34;100.00
61643;BME280;47551;52.506;4.678;2023-07-30T00:28:48;100751.25;;;20.36;100.00
61643;BME280;47551;52.506;4.678;2023-07-30T00:29:08;100739.44;;;20.38;100.00
61643;BME280;47551;52.506;4.678;2023-07-30T00:29:29;100745.53;;;20.41;100.00
61643;BME280;47551;52.506;4.678;2023-07-30T00:29:49;100745.06;;;20.35;100.00
61643;BME280;47551;52.506;4.678;2023-07-30T00:30:10;100731.81;;;20.34;100.00
61643;BME280;47551;52.506;4.678;2023-07-30T00:30:31;100732.91;;;20.31;100.00
61643;BME280;47551;52.506;4.678;2023-07-30T00:30:51;100749.69;;;20.33;100.00
61643;BME280;47551;52.506;4.678;2023-07-30T00:31:11;100743.38;;;20.34;100.00
61643;BME280;47551;52.506;4.678;2023-07-30T00:31:32;100742.13;;;20.38;100.00
61643;BME280;47551;52.506;4.678;2023-07-30T00:31:52;100741.38;;;20.36;100.00
61643;BME280;47551;52.506;4.678;2023-07-30T00:32:12;100739.44;;;20.38;100.00
61643;BME280;47551;52.506;4.678;2023-07-30T00:32:35;100745.53;;;20.41;100.00
61643;BME280;47551;52.506;4.678;2023-07-30T00:32:56;100744.53;;;20.42;100.00
61643;BME280;47551;52.506;4.678;2023-07-30T00:33:16;100744.13;;;20.25;100.00
61643;BME280;47551;52.506;4.678;2023-07-30T00:33:36;100741.00;;;20.20;100.00
61643;BME280;47551;52.506;4.678;2023-07-30T00:33:57;100737.94;;;20.25;100.00
61643;BME280;47551;52.506;4.678;2023-07-30T00:34:17;100738.78;;;20.25;100.00
61643;BME280;47551;52.506;4.678;2023-07-30T00:34:40;100743.88;;;20.28;100.00
61643;BME280;47551;52.506;4.678;2023-07-30T00:35:03;100746.34;;;20.20;100.00
61643;BME280;47551;52.506;4.678;2023-07-30T00:35:24;100744.13;;;20.25;100.00
61643;BME280;47551;52.506;4.678;2023-07-30T00:35:44;100749.28;;;20.17;100.00
61643;BME280;47551;52.506;4.678;2023-07-30T00:36:05;100741.00;;;20.20;100.00
61643;BME280;47551;52.506;4.678;2023-07-30T00:36:25;100743.88;;;20.28;100.00
61643;BME280;47551;52.506;4.678;2023-07-30T00:36:45;100740.72;;;20.23;100.00
61643;BME280;47551;52.506;4.678;2023-07-30T00:37:06;100729.75;;;20.26;100.00
61643;BME280;47551;52.506;4.678;2023-07-30T00:37:29;100734.59;;;20.32;100.00
61643;BME280;47551;52.506;4.678;2023-07-30T00:37:49;100735.44;;;20.33;100.00
61643;BME280;47551;52.506;4.678;2023-07-30T00:38:09;100741.66;;;20.33;100.00
61643;BME280;47551;52.506;4.678;2023-07-30T00:38:30;100745.06;;;20.35;100.00
61643;BME280;47551;52.506;4.678;2023-07-30T00:38:50;100747.38;;;20.08;100.00
61643;BME280;47551;52.506;4.678;2023-07-30T00:39:10;100747.13;;;20.11;100.00
61643;BME280;47551;52.506;4.678;2023-07-30T00:39:33;100744.63;;;20.19;100.00
61643;BME280;47551;52.506;4.678;2023-07-30T00:39:53;100744.88;;;20.16;100.00
61643;BME280;47551;52.506;4.678;2023-07-30T00:40:14;100737.09;;;20.24;100.00
61643;BME280;47551;52.506;4.678;2023-07-30T00:40:40;100750.25;;;20.16;100.00
61643;BME280;47551;52.506;4.678;2023-07-30T00:41:04;100747.06;;;20.22;100.00
61643;BME280;47551;52.506;4.678;2023-07-30T00:41:27;100748.50;;;20.26;100.00
61643;BME280;47551;52.506;4.678;2023-07-30T00:41:47;100739.75;;;20.24;100.00
61643;BME280;47551;52.506;4.678;2023-07-30T00:42:08;100747.78;;;20.24;100.00
61643;BME280;47551;52.506;4.678;2023-07-30T00:42:28;100741.25;;;20.17;100.00
61643;BME280;47551;52.506;4.678;2023-07-30T00:42:49;100747.53;;;20.27;100.00
61643;BME280;47551;52.506;4.678;2023-07-30T00:43:12;100737.59;;;20.18;100.00
61643;BME280;47551;52.506;4.678;2023-07-30T00:43:33;100747.00;;;20.33;100.00
61643;BME280;47551;52.506;4.678;2023-07-30T00:43:53;100738.03;;;20.23;100.00
61643;BME280;47551;52.506;4.678;2023-07-30T00:44:13;100739.44;;;20.18;100.00
61643;BME280;47551;52.506;4.678;2023-07-30T00:44:34;100745.31;;;20.32;100.00
61643;BME280;47551;52.506;4.678;2023-07-30T00:44:57;100741.72;;;20.43;100.00
61643;BME280;47551;52.506;4.678;2023-07-30T00:45:17;100742.84;;;20.41;100.00
61643;BME280;47551;52.506;4.678;2023-07-30T00:45:40;100735.94;;;20.38;100.00
61643;BME280;47551;52.506;4.678;2023-07-30T00:46:01;100739.19;;;20.21;100.00
61643;BME280;47551;52.506;4.678;2023-07-30T00:46:22;100738.34;;;20.20;100.00
61643;BME280;47551;52.506;4.678;2023-07-30T00:46:43;100754.06;;;20.34;100.00
61643;BME280;47551;52.506;4.678;2023-07-30T00:47:03;100745.81;;;20.26;100.00
61643;BME280;47551;52.506;4.678;2023-07-30T00:47:25;100740.22;;;20.29;100.00
61643;BME280;47551;52.506;4.678;2023-07-30T00:47:46;100744.31;;;20.33;100.00
61643;BME280;47551;52.506;4.678;2023-07-30T00:48:07;100751.34;;;20.46;100.00
61643;BME280;47551;52.506;4.678;2023-07-30T00:48:28;100752.06;;;20.48;100.00
61643;BME280;47551;52.506;4.678;2023-07-30T00:48:48;100754.50;;;20.19;100.00
61643;BME280;47551;52.506;4.678;2023-07-30T00:49:10;100751.13;;;20.17;100.00
61643;BME280;47551;52.506;4.678;2023-07-30T00:49:31;100750.00;;;20.19;100.00
61643;BME280;47551;52.506;4.678;2023-07-30T00:49:52;100750.22;;;20.27;100.00
61643;BME280;47551;52.506;4.678;2023-07-30T00:50:14;100750.38;;;20.14;100.00
61643;BME280;47551;52.506;4.678;2023-07-30T00:50:35;100747.97;;;20.11;100.00
61643;BME280;47551;52.506;4.678;2023-07-30T00:50:59;100742.03;;;20.08;100.00
61643;BME280;47551;52.506;4.678;2023-07-30T00:51:23;100750.25;;;20.16;100.00
61643;BME280;47551;52.506;4.678;2023-07-30T00:51:44;100759.25;;;20.15;100.00
61643;BME280;47551;52.506;4.678;2023-07-30T00:52:06;100746.47;;;20.19;100.00
61643;BME280;47551;52.506;4.678;2023-07-30T00:52:30;100747.81;;;20.13;100.00
61643;BME280;47551;52.506;4.678;2023-07-30T00:52:52;100753.25;;;20.23;100.00
61643;BME280;47551;52.506;4.678;2023-07-30T00:53:14;100755.09;;;20.22;100.00
61643;BME280;47551;52.506;4.678;2023-07-30T00:53:35;100752.63;;;20.30;100.00
61643;BME280;47551;52.506;4.678;2023-07-30T00:53:57;100756.16;;;20.31;100.00
61643;BME280;47551;52.506;4.678;2023-07-30T00:54:17;100737.78;;;20.26;100.00
61643;BME280;47551;52.506;4.678;2023-07-30T00:54:38;100753.16;;;20.24;100.00
61643;BME280;47551;52.506;4.678;2023-07-30T00:55:01;100741.97;;;20.19;100.00
61643;BME280;47551;52.506;4.678;2023-07-30T00:55:22;100744.38;;;20.22;100.00
61643;BME280;47551;52.506;4.678;2023-07-30T00:55:43;100742.44;;;20.24;100.00
61643;BME280;47551;52.506;4.678;2023-07-30T00:56:04;100743.88;;;20.28;100.00
61643;BME280;47551;52.506;4.678;2023-07-30T00:56:24;100744.47;;;20.32;100.00
61643;BME280;47551;52.506;4.678;2023-07-30T00:56:50;100748.47;;;20.37;100.00
61643;BME280;47551;52.506;4.678;2023-07-30T00:57:11;100741.66;;;20.33;100.00
61643;BME280;47551;52.506;4.678;2023-07-30T00:57:36;100747.72;;;20.14;100.00
61643;BME280;47551;52.506;4.678;2023-07-30T00:57:57;100750.84;;;20.20;100.00
61643;BME280;47551;52.506;4.678;2023-07-30T00:58:18;100758.50;;;20.24;100.00
61643;BME280;47551;52.506;4.678;2023-07-30T00:58:58;100747.38;;;20.08;100.00
61643;BME280;47551;52.506;4.678;2023-07-30T00:59:20;100752.47;;;20.11;100.00
61643;BME280;47551;52.506;4.678;2023-07-30T00:59:40;100751.63;;;20.10;100.00
61643;BME280;47551;52.506;4.678;2023-07-30T01:00:01;100754.63;;;20.17;100.00
61643;BME280;47551;52.506;4.678;2023-07-30T01:00:24;100751.16;;;20.26;100.00
61643;BME280;47551;52.506;4.678;2023-07-30T01:00:48;100753.41;;;20.21;100.00
61643;BME280;47551;52.506;4.678;2023-07-30T01:01:08;100750.38;;;20.14;100.00
61643;BME280;47551;52.506;4.678;2023-07-30T01:01:31;100750.97;;;20.18;100.00
61643;BME280;47551;52.506;4.678;2023-07-30T01:01:53;100748.16;;;20.20;100.00
61643;BME280;47551;52.506;4.678;2023-07-30T01:02:14;100750.50;;;20.13;100.00
61643;BME280;47551;52.506;4.678;2023-07-30T01:02:36;100756.38;;;20.07;100.00
61643;BME280;47551;52.506;4.678;2023-07-30T01:02:56;100748.56;;;20.15;100.00
61643;BME280;47551;52.506;4.678;2023-07-30T01:03:19;100744.03;;;20.27;100.00
61643;BME280;47551;52.506;4.678;2023-07-30T01:03:42;100748.97;;;20.31;100.00
61643;BME280;47551;52.506;4.678;2023-07-30T01:04:03;100752.63;;;20.30;100.00
61643;BME280;47551;52.506;4.678;2023-07-30T01:04:24;100758.00;;;20.30;100.00
61643;BME280;47551;52.506;4.678;2023-07-30T01:04:44;100751.44;;;20.23;100.00
61643;BME280;47551;52.506;4.678;2023-07-30T01:05:05;100756.31;;;20.18;100.00
61643;BME280;47551;52.506;4.678;2023-07-30T01:05:28;100750.00;;;20.19;100.00
61643;BME280;47551;52.506;4.678;2023-07-30T01:05:49;100753.91;;;20.15;100.00
61643;BME280;47551;52.506;4.678;2023-07-30T01:06:10;100755.09;;;20.22;100.00
61643;BME280;47551;52.506;4.678;2023-07-30T01:06:30;100754.59;;;20.28;100.00
61643;BME280;47551;52.506;4.678;2023-07-30T01:06:51;100746.06;;;20.23;100.00
61643;BME280;47551;52.506;4.678;2023-07-30T01:07:11;100748.63;;;20.25;100.00
61643;BME280;47551;52.506;4.678;2023-07-30T01:07:32;100756.53;;;20.26;100.00
61643;BME280;47551;52.506;4.678;2023-07-30T01:07:52;100754.38;;;20.20;100.00
61643;BME280;47551;52.506;4.678;2023-07-30T01:08:15;100751.38;;;20.13;100.00
61643;BME280;47551;52.506;4.678;2023-07-30T01:08:35;100751.97;;;20.17;100.00
61643;BME280;47551;52.506;4.678;2023-07-30T01:08:56;100752.56;;;20.21;100.00
61643;BME280;47551;52.506;4.678;2023-07-30T01:09:16;100748.75;;;20.23;100.00
61643;BME280;47551;52.506;4.678;2023-07-30T01:09:36;100749.22;;;20.28;100.00
61643;BME280;47551;52.506;4.678;2023-07-30T01:09:57;100753.47;;;20.31;100.00
61643;BME280;47551;52.506;4.678;2023-07-30T01:10:18;100754.31;;;20.31;100.00
61643;BME280;47551;52.506;4.678;2023-07-30T01:10:42;100756.75;;;20.34;100.00
61643;BME280;47551;52.506;4.678;2023-07-30T01:11:03;100755.75;;;20.35;100.00
61643;BME280;47551;52.506;4.678;2023-07-30T01:11:25;100753.66;;;20.18;100.00
61643;BME280;47551;52.506;4.678;2023-07-30T01:11:46;100751.97;;;20.17;100.00
61643;BME280;47551;52.506;4.678;2023-07-30T01:12:08;100754.50;;;20.19;100.00
61643;BME280;47551;52.506;4.678;2023-07-30T01:12:30;100760.34;;;20.24;100.00
61643;BME280;47551;52.506;4.678;2023-07-30T01:12:51;100753.75;;;20.28;100.00
61643;BME280;47551;52.506;4.678;2023-07-30T01:13:13;100755.75;;;20.35;100.00
61643;BME280;47551;52.506;4.678;2023-07-30T01:13:35;100747.78;;;20.24;100.00
61643;BME280;47551;52.506;4.678;2023-07-30T01:13:56;100754.09;;;20.23;100.00
61643;BME280;47551;52.506;4.678;2023-07-30T01:14:18;100748.16;;;20.20;100.00
61643;BME280;47551;52.506;4.678;2023-07-30T01:14:43;100752.47;;;20.11;100.00
61643;BME280;47551;52.506;4.678;2023-07-30T01:15:05;100749.78;;;20.11;100.00
61643;BME280;47551;52.506;4.678;2023-07-30T01:15:28;100752.47;;;20.11;100.00
61643;BME280;47551;52.506;4.678;2023-07-30T01:15:51;100756.84;;;20.12;100.00
61643;BME280;47551;52.506;4.678;2023-07-30T01:16:12;100761.59;;;20.08;100.00
61643;BME280;47551;52.506;4.678;2023-07-30T01:16:32;100753.44;;;20.10;100.00
61643;BME280;47551;52.506;4.678;2023-07-30T01:16:53;100758.75;;;20.21;100.00
61643;BME280;47551;52.506;4.678;2023-07-30T01:17:17;100755.84;;;20.13;100.00
61643;BME280;47551;52.506;4.678;2023-07-30T01:17:38;100754.63;;;20.17;100.00
61643;BME280;47551;52.506;4.678;2023-07-30T01:17:58;100761.19;;;20.13;100.00
61643;BME280;47551;52.506;4.678;2023-07-30T01:18:19;100757.06;;;20.20;100.00
61643;BME280;47551;52.506;4.678;2023-07-30T01:18:39;100759.34;;;20.25;100.00
61643;BME280;47551;52.506;4.678;2023-07-30T01:19:00;100755.69;;;20.26;100.00
61643;BME280;47551;52.506;4.678;2023-07-30T01:19:24;100758.84;;;20.31;100.00
61643;BME280;47551;52.506;4.678;2023-07-30T01:19:50;100760.38;;;20.33;100.00
61643;BME280;47551;52.506;4.678;2023-07-30T01:20:15;100760.13;;;20.36;100.00
61643;BME280;47551;52.506;4.678;2023-07-30T01:20:35;100768.69;;;20.30;100.00
61643;BME280;47551;52.506;4.678;2023-07-30T01:20:59;100760.28;;;20.35;100.00
61643;BME280;47551;52.506;4.678;2023-07-30T01:21:20;100762.81;;;20.36;100.00
61643;BME280;47551;52.506;4.678;2023-07-30T01:21:40;100765.69;;;20.45;100.00
61643;BME280;47551;52.506;4.678;2023-07-30T01:22:00;100762.03;;;20.46;100.00
61643;BME280;47551;52.506;4.678;2023-07-30T01:22:21;100761.78;;;20.49;100.00
61643;BME280;47551;52.506;4.678;2023-07-30T01:22:42;100753.81;;;20.37;100.00
61643;BME280;47551;52.506;4.678;2023-07-30T01:23:02;100760.84;;;20.38;100.00
61643;BME280;47551;52.506;4.678;2023-07-30T01:23:23;100764.13;;;20.42;100.00
61643;BME280;47551;52.506;4.678;2023-07-30T01:23:43;100763.41;;;20.40;100.00
61643;BME280;47551;52.506;4.678;2023-07-30T01:24:03;100767.66;;;20.43;100.00
61643;BME280;47551;52.506;4.678;2023-07-30T01:24:24;100753.94;;;20.36;100.00
61643;BME280;47551;52.506;4.678;2023-07-30T01:24:44;100755.50;;;20.38;100.00
61643;BME280;47551;52.506;4.678;2023-07-30T01:25:05;100762.28;;;20.43;100.00
61643;BME280;47551;52.506;4.678;2023-07-30T01:25:30;100766.22;;;20.38;100.00
61643;BME280;47551;52.506;4.678;2023-07-30T01:26:02;100762.81;;;20.36;100.00
61643;BME280;47551;52.506;4.678;2023-07-30T01:26:25;100761.38;;;20.32;100.00
61643;BME280;47551;52.506;4.678;2023-07-30T01:27:29;100758.25;;;20.27;100.00
61643;BME280;47551;52.506;4.678;2023-07-30T01:27:58;100758.44;;;20.35;100.00
61643;BME280;47551;52.506;4.678;2023-07-30T01:28:20;100756.75;;;20.34;100.00
61643;BME280;47551;52.506;4.678;2023-07-30T01:28:46;100755.56;;;20.27;100.00
61643;BME280;47551;52.506;4.678;2023-07-30T01:29:33;100759.53;;;20.33;100.00
61643;BME280;47551;52.506;4.678;2023-07-30T01:30:11;100761.84;;;20.37;100.00
61643;BME280;47551;52.506;4.678;2023-07-30T01:30:40;100756.84;;;20.33;100.00
61643;BME280;47551;52.506;4.678;2023-07-30T01:31:02;100761.63;;;20.29;100.00
61643;BME280;47551;52.506;4.678;2023-07-30T01:31:25;100759.94;;;20.28;100.00
61643;BME280;47551;52.506;4.678;2023-07-30T01:31:51;100755.31;;;20.30;100.00
61643;BME280;47551;52.506;4.678;2023-07-30T01:32:14;100759.16;;;20.37;100.00
61643;BME280;47551;52.506;4.678;2023-07-30T01:32:35;100758.25;;;20.27;100.00
61643;BME280;47551;52.506;4.678;2023-07-30T01:32:56;100753.75;;;20.28;100.00
61643;BME280;47551;52.506;4.678;2023-07-30T01:33:17;100754.16;;;20.12;100.00
61643;BME280;47551;52.506;4.678;2023-07-30T01:33:38;100765.00;;;20.10;100.00
61643;BME280;47551;52.506;4.678;2023-07-30T01:34:03;100760.25;;;20.14;100.00
61643;BME280;47551;52.506;4.678;2023-07-30T01:34:27;100754.75;;;20.15;100.00
61643;BME280;47551;52.506;4.678;2023-07-30T01:34:50;100754.41;;;20.09;100.00
61643;BME280;47551;52.506;4.678;2023-07-30T01:35:13;100764.00;;;20.11;100.00
61643;BME280;47551;52.506;4.678;2023-07-30T01:35:37;100755.00;;;20.12;100.00
61643;BME280;47551;52.506;4.678;2023-07-30T01:35:58;100759.31;;;20.04;100.00
61643;BME280;47551;52.506;4.678;2023-07-30T01:36:19;100760.25;;;20.14;100.00
61643;BME280;47551;52.506;4.678;2023-07-30T01:36:40;100758.75;;;20.21;100.00
61643;BME280;47551;52.506;4.678;2023-07-30T01:37:03;100763.72;;;20.26;100.00
61643;BME280;47551;52.506;4.678;2023-07-30T01:37:25;100759.44;;;20.23;100.00
61643;BME280;47551;52.506;4.678;2023-07-30T01:37:46;100754.84;;;20.25;100.00
61643;BME280;47551;52.506;4.678;2023-07-30T01:38:08;100768.47;;;20.22;100.00
61643;BME280;47551;52.506;4.678;2023-07-30T01:38:29;100763.16;;;20.11;100.00
61643;BME280;47551;52.506;4.678;2023-07-30T01:38:50;100759.25;;;20.15;100.00
61643;BME280;47551;52.506;4.678;2023-07-30T01:39:11;100765.34;;;20.17;100.00
61643;BME280;47551;52.506;4.678;2023-07-30T01:39:32;100758.75;;;20.21;100.00
61643;BME280;47551;52.506;4.678;2023-07-30T01:39:57;100766.88;;;20.20;100.00
61643;BME280;47551;52.506;4.678;2023-07-30T01:40:21;100759.84;;;20.19;100.00
61643;BME280;47551;52.506;4.678;2023-07-30T01:40:42;100770.56;;;20.19;100.00
61643;BME280;47551;52.506;4.678;2023-07-30T01:41:02;100766.28;;;20.16;100.00
61643;BME280;47551;52.506;4.678;2023-07-30T01:41:23;100760.69;;;20.19;100.00
61643;BME280;47551;52.506;4.678;2023-07-30T01:41:44;100763.38;;;20.19;100.00
61643;BME280;47551;52.506;4.678;2023-07-30T01:42:07;100764.34;;;20.18;100.00
61643;BME280;47551;52.506;4.678;2023-07-30T01:42:30;100760.91;;;20.27;100.00
61643;BME280;47551;52.506;4.678;2023-07-30T01:42:53;100759.75;;;20.20;100.00
61643;BME280;47551;52.506;4.678;2023-07-30T01:43:14;100759.00;;;20.18;100.00
61643;BME280;47551;52.506;4.678;2023-07-30T01:43:37;100764.22;;;20.20;100.00
61643;BME280;47551;52.506;4.678;2023-07-30T01:43:57;100762.13;;;20.23;100.00
61643;BME280;47551;52.506;4.678;2023-07-30T01:44:18;100761.38;;;20.32;100.00
61643;BME280;47551;52.506;4.678;2023-07-30T01:44:38;100762.75;;;20.27;100.00
61643;BME280;47551;52.506;4.678;2023-07-30T01:45:01;100760.78;;;20.29;100.00
61643;BME280;47551;52.506;4.678;2023-07-30T01:45:24;100759.75;;;20.20;100.00
61643;BME280;47551;52.506;4.678;2023-07-30T01:45:45;100760.19;;;20.25;100.00
61643;BME280;47551;52.506;4.678;2023-07-30T01:46:05;100768.88;;;20.18;100.00
61643;BME280;47551;52.506;4.678;2023-07-30T01:46:28;100764.34;;;20.18;100.00
61643;BME280;47551;52.506;4.678;2023-07-30T01:46:48;100765.50;;;20.04;100.00
61643;BME280;47551;52.506;4.678;2023-07-30T01:47:09;100773.66;;;20.03;100.00
61643;BME280;47551;52.506;4.678;2023-07-30T01:47:29;100759.16;;;20.05;100.00
61643;BME280;47551;52.506;4.678;2023-07-30T01:47:50;100759.31;;;20.04;100.00
61643;BME280;47551;52.506;4.678;2023-07-30T01:48:12;100769.88;;;20.05;100.00
61643;BME280;47551;52.506;4.678;2023-07-30T01:48:33;100769.75;;;20.07;100.00
61643;BME280;47551;52.506;4.678;2023-07-30T01:48:53;100767.28;;;20.15;100.00
61643;BME280;47551;52.506;4.678;2023-07-30T01:49:14;100761.94;;;20.15;100.00
61643;BME280;47551;52.506;4.678;2023-07-30T01:49:34;100765.84;;;20.11;100.00
61643;BME280;47551;52.506;4.678;2023-07-30T01:49:54;100759.75;;;20.09;100.00
61643;BME280;47551;52.506;4.678;2023-07-30T01:50:17;100773.97;;;20.09;100.00
61643;BME280;47551;52.506;4.678;2023-07-30T01:50:40;100764.25;;;20.08;100.00
61643;BME280;47551;52.506;4.678;2023-07-30T01:51:04;100774.97;;;20.08;100.00
61643;BME280;47551;52.506;4.678;2023-07-30T01:51:24;100771.25;;;20.00;100.00
61643;BME280;47551;52.506;4.678;2023-07-30T01:51:44;100770.47;;;20.09;100.00
61643;BME280;47551;52.506;4.678;2023-07-30T01:52:05;100770.94;;;20.14;100.00
61643;BME280;47551;52.506;4.678;2023-07-30T01:52:25;100758.75;;;20.21;100.00